Flight Track Log - Related Links

Times and Time Zones

All times are in EDT time to prevent confusion due to time zone crossing. See the CSJ405 flight status page for this flight to view local times or setup timezone preferences in your user account.

Time Position Orientation Groundspeed Altitude Reporting Facility
EDT Latitude Longitude Course Direction KTS MPH feet Rate Location/Type
Tue 04:54:02 AM 45.6833 -73.9833 190° South 120 138 1,400  Level Montreal Center
Tue 04:55:02 AM 45.6833 -73.9333 90° East 120 138 2,600 1,100 Climbing Montreal Center
Tue 04:56:02 AM 45.6500 -73.9000 145° Southeast 130 150 3,600 1,000 Climbing Montreal Center
Tue 04:57:02 AM 45.6167 -73.9000 180° South 130 150 4,600 1,000 Climbing Montreal Center
Tue 04:58:02 AM 45.5833 -73.9167 199° South 120 138 5,600 950 Climbing Montreal Center
Tue 04:59:00 AM 45.3530 -74.0111 190° South  Level Estimated
Tue 04:59:02 AM 45.5500 -73.9167 180° South 130 150 6,500  Level Montreal Center
Tue 05:00:02 AM 45.5000 -73.9167 180° South 140 161 7,300 800 Climbing Montreal Center
Tue 05:01:02 AM 45.4667 -73.9167 180° South 140 161 8,100 750 Climbing Montreal Center
Tue 05:02:02 AM 45.4333 -73.9167 180° South 150 173 8,800 750 Climbing Montreal Center
Tue 05:03:02 AM 45.3833 -73.9167 180° South 140 161 9,600 600 Climbing Montreal Center
Tue 05:04:02 AM 45.3500 -73.9167 180° South 150 173 10,000 200 Climbing Montreal Center
Tue 05:05:02 AM 45.3000 -73.9000 167° South 160 184 10,000  Level Montreal Center
Tue 05:06:02 AM 45.2667 -73.9000 180° South 160 184 10,000  Level Montreal Center
Tue 05:07:02 AM 45.2167 -73.9000 180° South 160 184 10,000  Level Montreal Center
Tue 05:08:02 AM 45.1667 -73.9000 180° South 160 184 10,000  Level Montreal Center
Tue 05:09:02 AM 45.1167 -73.9000 180° South 160 184 10,000  Level Montreal Center
Tue 05:10:02 AM 45.0833 -73.9000 180° South 170 196 10,000  Level Montreal Center
Tue 05:11:02 AM 45.0333 -73.8833 167° South 160 184 10,000  Level Montreal Center
Tue 05:12:02 AM 44.9833 -73.8833 180° South 160 184 10,000  Level Montreal Center
Tue 05:13:02 AM 44.9500 -73.8833 180° South 160 184 10,000  Level Montreal Center
Tue 05:14:02 AM 44.9000 -73.8833 180° South 160 184 10,000 50 Level Montreal Center
Tue 05:15:02 AM 44.8708 -73.8986 200° South 160 184 10,100 50 Climbing Boston Center
Tue 05:16:02 AM 44.8250 -73.8917 174° South 160 184 10,100  Level Boston Center
Tue 05:17:02 AM 44.7814 -73.8936 182° South 160 184 10,100  Level Boston Center
Tue 05:18:02 AM 44.7356 -73.8925 179° South 160 184 10,100  Level Boston Center
Tue 05:19:02 AM 44.6856 -73.8883 177° South 160 184 10,100  Level Boston Center
Tue 05:20:02 AM 44.6419 -73.8872 179° South 160 184 10,100  Level Boston Center
Tue 05:21:14 AM 44.5981 -73.8833 176° South 160 184 10,100  Level Boston Center
Tue 05:22:14 AM 44.5439 -73.8819 179° South 160 184 10,100  Level Boston Center
Tue 05:23:14 AM 44.5003 -73.8808 179° South 160 184 10,100  Level Boston Center
Tue 05:24:14 AM 44.4586 -73.8797 179° South 160 184 10,100  Level Boston Center
Tue 05:25:14 AM 44.4128 -73.8786 179° South 160 184 10,100  Level Boston Center
Tue 05:26:14 AM 44.3669 -73.8775 179° South 160 184 10,100  Level Boston Center
Tue 05:27:14 AM 44.3211 -73.8764 179° South 160 184 10,100  Level Boston Center
Tue 05:28:14 AM 44.2692 -73.8694 175° South 160 184 10,100  Level Boston Center
Tue 05:29:14 AM 44.2253 -73.8683 179° South 160 184 10,100  Level Boston Center
Tue 05:30:14 AM 44.1839 -73.8644 176° South 160 184 10,100  Level Boston Center
Tue 05:31:14 AM 44.1400 -73.8633 179° South 160 184 10,100  Level Boston Center
Tue 05:32:14 AM 44.0881 -73.8592 177° South 160 184 10,100  Level Boston Center
Tue 05:33:14 AM 44.0442 -73.8583 179° South 160 184 10,100  Level Boston Center
Tue 05:34:14 AM 43.9983 -73.8572 179° South 160 184 10,100  Level Boston Center
Tue 05:35:14 AM 43.9525 -73.8531 176° South 160 184 10,100  Level Boston Center
Tue 05:36:38 AM 43.8964 -73.8519 179° South 165 190 10,100  Level Boston Center
Tue 05:37:38 AM 43.8422 -73.8506 179° South 165 190 10,100  Level Boston Center
Tue 05:38:38 AM 43.7964 -73.8494 179° South 165 190 10,100  Level Boston Center
Tue 05:39:38 AM 43.7506 -73.8483 179° South 165 190 10,100  Level Boston Center
Tue 05:40:38 AM 43.7089 -73.8444 176° South 160 184 10,100  Level Boston Center
Tue 05:41:38 AM 43.6650 -73.8436 179° South 160 184 10,100  Level Boston Center
Tue 05:42:38 AM 43.6194 -73.8397 176° South 160 184 10,100  Level Boston Center
Tue 05:43:38 AM 43.5756 -73.8386 179° South 160 184 10,100  Level Boston Center
Tue 05:44:38 AM 43.5319 -73.8375 179° South 160 184 10,100  Level Boston Center
Tue 05:45:38 AM 43.4881 -73.8336 176° South 160 184 10,100  Level Boston Center
Tue 05:46:38 AM 43.4422 -73.8328 179° South 160 184 10,100  Level Boston Center
Tue 05:47:38 AM 43.3986 -73.8289 176° South 160 184 10,100  Level Boston Center
Tue 05:48:38 AM 43.3528 -73.8306 182° South 165 190 10,100 -305 Level Boston Center
Tue 05:49:36 AM 43.3131 -73.8325 182° South 167 192 9,500 -655 Descending Boston Center
Tue 05:50:37 AM 43.2631 -73.8286 177° South 178 205 8,800 -738 Descending Boston Center
Tue 05:51:38 AM 43.2111 -73.8217 174° South 180 207 8,000 -793 Descending Boston Center
Tue 05:52:38 AM 43.1589 -73.8292 186° South 183 211 7,200 -650 Descending Boston Center
Tue 05:53:38 AM 43.1089 -73.8222 174° South 180 207 6,700 -500 Descending Boston Center
Tue 05:54:38 AM 43.0589 -73.8183 177° South 180 207 6,200 -590 Descending Boston Center
Tue 05:55:40 AM 43.0028 -73.8114 175° South 184 212 5,500 -732 Descending Boston Center
Tue 05:56:41 AM 42.9506 -73.8158 184° South 192 221 4,700 -942 Descending Boston Center
Tue 05:57:41 AM 42.8964 -73.8147 179° South 192 221 3,600 -1,289 Descending Boston Center
Tue 05:58:42 AM 42.8444 -73.8106 177° South 177 204 2,100 -1,131 Descending Boston Center
Tue 05:59:43 AM 42.7964 -73.8097 179° South 164 189 1,300 -793 Descending Boston Center
Tue 06:00:43 AM 42.7653 -73.8061 175° South 108 124 500 -800 Descending Boston Center
Tue 06:02:00 AM 42.7491 -73.8020 North  Level Estimated
Tue 06:09:00 AM 42.7491 -73.8020 North  Level Estimated
Tue 06:10:00 AM 42.7491 -73.8020 North  Level Estimated
Tue 06:11:00 AM 42.7491 -73.8020 North  Level Estimated

Login

Don't have an account? Register now (free) for customized features, flight alerts, and more!